Time;durP1;ratioP1;P1;durP2;ratioP2;P2;SDS_P1;SDS_P2;PMS_P1;PMS_P2;Temp;Humidity;BMP_temperature;BMP_pressure;BME280_temperature;BME280_humidity;BME280_pressure;Samples;Min_cycle;Max_cycle;Signal;HPM_P1;HPM_P2
2022/03/31 00:00:09;;;;;;;2.87;2.00;;;11.50;99.90;;;;;;1026282;28;20777;-63
2022/03/31 00:00:43;;;;;;;3.40;2.53;;;11.50;99.90;;;;;;1026470;28;20056;-64
2022/03/31 00:01:14;;;;;;;3.45;2.17;;;11.50;99.90;;;;;;1022195;29;20735;-64
2022/03/31 00:01:45;;;;;;;2.73;2.10;;;11.50;99.90;;;;;;1022357;29;20519;-64
2022/03/31 00:02:15;;;;;;;2.30;1.90;;;11.50;99.90;;;;;;1022434;29;20498;-62
2022/03/31 00:02:47;;;;;;;3.20;2.27;;;11.50;99.90;;;;;;1022142;29;20027;-64
2022/03/31 00:03:19;;;;;;;2.22;2.00;;;11.50;99.90;;;;;;1019028;29;20059;-63
2022/03/31 00:03:50;;;;;;;2.75;2.10;;;11.50;99.90;;;;;;1018706;29;20067;-64
2022/03/31 00:04:20;;;;;;;2.13;1.93;;;11.50;99.90;;;;;;1018855;29;20047;-63
2022/03/31 00:04:51;;;;;;;3.23;2.20;;;11.50;99.90;;;;;;1018421;29;20026;-62
2022/03/31 00:05:22;;;;;;;3.37;2.27;;;11.50;99.90;;;;;;1018838;29;20111;-64
2022/03/31 00:05:52;;;;;;;2.40;1.90;;;11.50;99.90;;;;;;1018884;29;20159;-64
2022/03/31 00:06:23;;;;;;;2.90;1.83;;;11.50;99.90;;;;;;1018797;29;20580;-64
2022/03/31 00:06:54;;;;;;;2.23;2.00;;;11.50;99.90;;;;;;1018032;29;20472;-64
2022/03/31 00:07:24;;;;;;;2.67;1.80;;;11.50;99.90;;;;;;1018470;29;20055;-63
2022/03/31 00:07:57;;;;;;;3.72;2.30;;;11.50;99.90;;;;;;1018155;29;20031;-63
2022/03/31 00:08:28;;;;;;;2.53;2.05;;;11.50;99.90;;;;;;1018995;29;20043;-63
2022/03/31 00:08:59;;;;;;;3.30;2.20;;;11.50;99.90;;;;;;1021763;29;20026;-64
2022/03/31 00:09:29;;;;;;;2.83;2.20;;;11.40;99.90;;;;;;1018919;29;20052;-63
2022/03/31 00:10:00;;;;;;;3.53;1.93;;;11.40;99.90;;;;;;1018381;29;20677;-65
2022/03/31 00:10:42;;;;;;;2.63;2.17;;;11.40;99.90;;;;;;1018746;29;20131;-64
2022/03/31 00:11:12;;;;;;;2.08;1.83;;;11.40;99.90;;;;;;1018886;29;20024;-64
2022/03/31 00:11:43;;;;;;;2.17;1.70;;;11.40;99.90;;;;;;1018741;29;20352;-64
2022/03/31 00:12:14;;;;;;;3.27;2.30;;;11.40;99.90;;;;;;1018486;29;20489;-64
2022/03/31 00:12:44;;;;;;;2.97;2.03;;;11.40;99.90;;;;;;1018691;29;20019;-64
2022/03/31 00:13:27;;;;;;;2.50;2.10;;;11.50;99.90;;;;;;1018687;29;20039;-65
2022/03/31 00:13:57;;;;;;;3.28;2.15;;;11.50;99.90;;;;;;1018440;29;20012;-61
2022/03/31 00:14:28;;;;;;;1.97;1.60;;;11.40;99.90;;;;;;1018188;29;20016;-64
2022/03/31 00:14:59;;;;;;;2.17;1.93;;;11.40;99.90;;;;;;1018451;29;20022;-64
2022/03/31 00:15:30;;;;;;;2.97;1.80;;;11.40;99.90;;;;;;1018264;29;20105;-62
2022/03/31 00:16:01;;;;;;;2.78;2.03;;;11.40;99.90;;;;;;1022308;29;20101;-64
2022/03/31 00:16:31;;;;;;;2.57;2.00;;;11.40;99.90;;;;;;1022275;29;20018;-64
2022/03/31 00:17:02;;;;;;;2.57;1.70;;;11.40;99.90;;;;;;1022191;29;20012;-63
2022/03/31 00:17:33;;;;;;;2.00;1.77;;;11.40;99.90;;;;;;1018616;29;20521;-62
2022/03/31 00:18:05;;;;;;;2.43;1.67;;;11.40;99.90;;;;;;1018701;29;20011;-64
2022/03/31 00:18:37;;;;;;;2.20;1.88;;;11.40;99.90;;;;;;1022200;29;20071;-68
2022/03/31 00:19:08;;;;;;;2.33;1.80;;;11.30;99.90;;;;;;1022100;29;20563;-62
2022/03/31 00:19:39;;;;;;;3.37;2.47;;;11.30;99.90;;;;;;1022332;29;20019;-64
2022/03/31 00:32:30;;;;;;;1.67;1.50;;;11.20;99.90;;;;;;1022803;29;20651;-62
2022/03/31 00:33:01;;;;;;;2.00;1.80;;;11.20;99.90;;;;;;1022531;29;20039;-64
2022/03/31 00:33:32;;;;;;;1.83;1.67;;;11.20;99.90;;;;;;1022639;29;20038;-63
2022/03/31 00:34:02;;;;;;;1.60;1.30;;;11.10;99.90;;;;;;1022584;29;20042;-62
2022/03/31 00:34:35;;;;;;;1.70;1.60;;;11.20;99.90;;;;;;1022731;29;20049;-63
2022/03/31 00:35:08;;;;;;;1.90;1.75;;;11.20;99.90;;;;;;1022413;29;20791;-62
2022/03/31 00:35:39;;;;;;;1.60;1.45;;;11.20;99.90;;;;;;1022800;28;20023;-63
2022/03/31 00:36:12;;;;;;;1.80;1.50;;;11.20;99.90;;;;;;1022674;29;20031;-64
2022/03/31 00:36:49;;;;;;;1.42;1.30;;;11.20;99.90;;;;;;1022663;28;20351;-63
2022/03/31 00:37:42;;;;;;;1.98;1.70;;;11.10;99.90;;;;;;1022104;29;20027;-62
2022/03/31 00:38:12;;;;;;;1.50;1.40;;;11.10;99.90;;;;;;1022282;29;20027;-61
2022/03/31 00:39:28;;;;;;;2.33;1.80;;;11.10;99.90;;;;;;1022117;29;20101;-64
2022/03/31 00:39:34;;;;;;;1.55;1.45;;;11.10;99.90;;;;;;1022648;29;20051;-63
2022/03/31 00:40:05;;;;;;;1.47;1.33;;;11.10;99.90;;;;;;1022146;29;20178;-64
2022/03/31 00:40:35;;;;;;;1.67;1.40;;;11.10;99.90;;;;;;1022192;29;20043;-63
2022/03/31 00:41:06;;;;;;;1.40;1.30;;;11.10;99.90;;;;;;1022148;29;20202;-62
2022/03/31 00:41:38;;;;;;;1.53;1.40;;;11.10;99.90;;;;;;1022355;29;20043;-64
2022/03/31 00:42:10;;;;;;;1.65;1.40;;;11.10;99.90;;;;;;1022768;28;20060;-63
2022/03/31 00:42:54;;;;;;;2.80;1.73;;;11.10;99.90;;;;;;1022512;28;20038;-63
2022/03/31 00:43:24;;;;;;;1.70;1.60;;;11.10;99.90;;;;;;1022781;28;20034;-63
2022/03/31 00:43:55;;;;;;;1.53;1.30;;;11.10;99.90;;;;;;1022438;29;20169;-63
2022/03/31 00:44:26;;;;;;;1.30;1.20;;;11.10;99.90;;;;;;1022572;29;20685;-64
2022/03/31 00:44:57;;;;;;;1.75;1.40;;;11.10;99.90;;;;;;1022621;29;20483;-64
2022/03/31 00:45:34;;;;;;;1.30;1.20;;;11.10;99.90;;;;;;1022210;29;20035;-63
2022/03/31 00:46:05;;;;;;;1.30;1.20;;;11.10;99.90;;;;;;1021950;29;20688;-64
2022/03/31 00:46:45;;;;;;;2.03;1.50;;;11.10;99.90;;;;;;1022378;29;20039;-63
2022/03/31 00:47:17;;;;;;;1.40;1.30;;;11.10;99.90;;;;;;1022555;29;20122;-63
2022/03/31 00:47:48;;;;;;;1.65;1.10;;;11.00;99.90;;;;;;1022567;29;20075;-64
2022/03/31 00:48:19;;;;;;;1.37;1.20;;;11.00;99.90;;;;;;1022849;28;20110;-63
2022/03/31 00:48:49;;;;;;;1.70;1.20;;;11.00;99.90;;;;;;1023141;29;20067;-64
2022/03/31 00:49:21;;;;;;;1.30;1.20;;;11.00;99.90;;;;;;1023332;29;20024;-63
2022/03/31 00:49:52;;;;;;;1.17;1.05;;;11.00;99.90;;;;;;1023630;28;20138;-63
2022/03/31 00:50:23;;;;;;;1.27;1.17;;;11.00;99.90;;;;;;1023094;29;20054;-64
2022/03/31 00:50:54;;;;;;;1.07;1.07;;;11.00;99.90;;;;;;1023484;28;20078;-65
2022/03/31 00:51:24;;;;;;;1.00;1.00;;;11.00;99.90;;;;;;1022747;29;20267;-63
2022/03/31 00:51:55;;;;;;;1.23;1.13;;;11.00;99.90;;;;;;1022973;29;20027;-64
2022/03/31 00:52:26;;;;;;;1.50;1.10;;;11.00;99.90;;;;;;1022999;29;20082;-64
2022/03/31 00:52:57;;;;;;;1.27;1.00;;;11.00;99.90;;;;;;1023001;29;20035;-64
2022/03/31 00:53:27;;;;;;;1.07;0.93;;;11.00;99.90;;;;;;1021261;28;20031;-64
2022/03/31 00:53:58;;;;;;;0.80;0.80;;;11.00;99.90;;;;;;1019502;28;20027;-64
2022/03/31 00:54:29;;;;;;;1.20;1.10;;;11.00;99.90;;;;;;1022479;28;20043;-65
2022/03/31 00:55:00;;;;;;;1.08;0.98;;;11.00;99.90;;;;;;1023260;29;20122;-64
2022/03/31 00:55:32;;;;;;;1.52;1.00;;;10.90;99.90;;;;;;1022734;29;20140;-64
2022/03/31 00:56:02;;;;;;;1.40;1.30;;;10.90;99.90;;;;;;1022875;29;20039;-64
2022/03/31 00:56:33;;;;;;;1.27;0.80;;;10.90;99.90;;;;;;1022859;29;20015;-64
2022/03/31 00:57:06;;;;;;;1.00;1.00;;;10.90;99.90;;;;;;1022743;28;20066;-63
2022/03/31 00:57:37;;;;;;;1.20;1.10;;;10.90;99.90;;;;;;1023408;28;20035;-63
2022/03/31 00:58:09;;;;;;;1.15;1.05;;;10.80;99.90;;;;;;1023288;28;20102;-63
2022/03/31 00:58:39;;;;;;;1.13;0.80;;;10.80;99.90;;;;;;1022723;29;20182;-64
2022/03/31 00:59:11;;;;;;;1.77;0.80;;;10.80;99.90;;;;;;1022872;29;20069;-63
2022/03/31 00:59:42;;;;;;;0.80;0.80;;;10.80;99.90;;;;;;1022841;29;20131;-65
2022/03/31 01:00:17;;;;;;;0.73;0.73;;;10.80;99.90;;;;;;1023219;29;20026;-63
2022/03/31 01:00:48;;;;;;;1.35;1.25;;;10.80;99.90;;;;;;1022714;29;20027;-63
2022/03/31 01:01:21;;;;;;;1.35;1.08;;;10.80;99.90;;;;;;1019308;29;20044;-63
2022/03/31 01:01:52;;;;;;;1.10;1.00;;;10.80;99.90;;;;;;1019300;29;20016;-63
2022/03/31 01:02:22;;;;;;;1.15;1.05;;;10.80;99.90;;;;;;1019219;29;20015;-63
2022/03/31 01:02:53;;;;;;;0.80;0.80;;;10.80;99.90;;;;;;1022848;29;20075;-62
2022/03/31 01:03:24;;;;;;;1.10;1.00;;;10.80;99.90;;;;;;1023012;29;20122;-62
2022/03/31 01:03:55;;;;;;;0.80;0.80;;;10.80;99.90;;;;;;1022865;29;20423;-62
2022/03/31 01:04:29;;;;;;;0.90;0.90;;;10.70;99.90;;;;;;1022695;29;20701;-62
2022/03/31 01:05:00;;;;;;;0.90;0.90;;;10.70;99.90;;;;;;1019219;29;20024;-62
2022/03/31 01:05:31;;;;;;;1.10;1.00;;;10.70;99.90;;;;;;1019431;29;20028;-63
2022/03/31 01:06:02;;;;;;;1.00;0.90;;;10.70;99.90;;;;;;1018918;29;20032;-64
2022/03/31 01:06:33;;;;;;;1.20;1.10;;;10.70;99.90;;;;;;1020139;29;20055;-64
2022/03/31 01:07:05;;;;;;;0.80;0.80;;;10.70;99.90;;;;;;1020117;28;20028;-62
2022/03/31 01:07:39;;;;;;;0.80;0.80;;;10.70;99.90;;;;;;1019536;29;20038;-63
2022/03/31 01:08:10;;;;;;;0.70;0.70;;;10.70;99.90;;;;;;1022663;29;20502;-61
2022/03/31 01:08:42;;;;;;;0.90;0.90;;;10.70;99.90;;;;;;1022935;29;20079;-62
2022/03/31 01:09:13;;;;;;;0.80;0.75;;;10.70;99.90;;;;;;1022765;29;20023;-64
2022/03/31 01:09:44;;;;;;;1.70;0.80;;;10.60;99.90;;;;;;1022953;29;20023;-65
2022/03/31 01:10:15;;;;;;;0.80;0.80;;;10.60;99.90;;;;;;1022727;29;20058;-63
2022/03/31 01:10:48;;;;;;;0.80;0.80;;;10.60;99.90;;;;;;1023083;29;20023;-64
2022/03/31 01:11:19;;;;;;;0.88;0.88;;;10.60;99.90;;;;;;1022228;29;20700;-64
2022/03/31 01:11:49;;;;;;;0.97;0.80;;;10.60;99.90;;;;;;1019272;29;20502;-63
2022/03/31 01:12:22;;;;;;;0.70;0.70;;;10.60;99.90;;;;;;1020331;29;20024;-62
2022/03/31 01:12:52;;;;;;;0.93;0.82;;;10.60;99.90;;;;;;1023481;29;20552;-68
2022/03/31 01:13:23;;;;;;;1.27;1.00;;;10.60;99.90;;;;;;1023112;29;20644;-63
2022/03/31 01:13:55;;;;;;;0.70;0.70;;;10.60;99.90;;;;;;1023387;29;20015;-62
2022/03/31 01:14:25;;;;;;;1.27;0.77;;;10.60;99.90;;;;;;1022913;29;20442;-64
2022/03/31 01:15:17;;;;;;;0.70;0.70;;;10.60;99.90;;;;;;1023244;29;20407;-64
2022/03/31 01:15:47;;;;;;;1.10;0.80;;;10.60;99.90;;;;;;1023541;29;20062;-64
2022/03/31 01:16:18;;;;;;;0.53;0.53;;;10.60;99.90;;;;;;1023084;29;20023;-63
2022/03/31 01:16:49;;;;;;;0.70;0.70;;;10.60;99.90;;;;;;1023101;29;20089;-64
2022/03/31 01:17:19;;;;;;;0.83;0.83;;;10.60;99.90;;;;;;1022896;29;20050;-63
2022/03/31 01:17:50;;;;;;;0.90;0.90;;;10.60;99.90;;;;;;1023214;29;20030;-63
2022/03/31 01:18:21;;;;;;;0.70;0.70;;;10.60;99.90;;;;;;1023176;29;20050;-64
2022/03/31 01:18:51;;;;;;;0.60;0.60;;;10.60;99.90;;;;;;1023242;29;20091;-64
2022/03/31 01:19:22;;;;;;;0.77;0.77;;;10.60;99.90;;;;;;1022961;29;20015;-64
2022/03/31 01:19:53;;;;;;;0.63;0.63;;;10.50;99.90;;;;;;1023404;29;20019;-63
2022/03/31 01:20:23;;;;;;;0.70;0.70;;;10.60;99.90;;;;;;1022895;29;20018;-64
2022/03/31 01:20:54;;;;;;;1.13;0.90;;;10.60;99.90;;;;;;1023414;29;20019;-64
2022/03/31 01:21:24;;;;;;;0.80;0.80;;;10.50;99.90;;;;;;1023031;29;20026;-64
2022/03/31 01:21:55;;;;;;;0.60;0.60;;;10.50;99.90;;;;;;1023243;29;20110;-64
2022/03/31 01:22:30;;;;;;;0.80;0.60;;;10.50;99.90;;;;;;1022875;29;20471;-65
2022/03/31 01:23:01;;;;;;;0.70;0.70;;;10.50;99.90;;;;;;1022840;29;20110;-64
2022/03/31 01:23:32;;;;;;;0.70;0.70;;;10.50;99.90;;;;;;1023042;29;20019;-64
2022/03/31 01:24:06;;;;;;;0.80;0.80;;;10.40;99.90;;;;;;1022678;29;20309;-64
2022/03/31 01:24:38;;;;;;;0.70;0.70;;;10.40;99.90;;;;;;1022672;29;20026;-64
2022/03/31 01:25:10;;;;;;;0.60;0.60;;;10.40;99.90;;;;;;1023182;29;20027;-64
2022/03/31 01:25:41;;;;;;;0.63;0.60;;;10.40;99.90;;;;;;1022875;29;20118;-64
2022/03/31 01:26:13;;;;;;;0.70;0.70;;;10.40;99.90;;;;;;1023099;29;20137;-64
2022/03/31 01:26:44;;;;;;;0.60;0.60;;;10.40;99.90;;;;;;1022624;29;20015;-64
2022/03/31 01:27:15;;;;;;;0.70;0.70;;;10.40;99.90;;;;;;1022978;29;20470;-64
2022/03/31 01:27:47;;;;;;;0.60;0.60;;;10.40;99.90;;;;;;1022679;29;20494;-65
2022/03/31 01:28:18;;;;;;;0.80;0.80;;;10.40;99.90;;;;;;1023199;29;20016;-64
2022/03/31 01:28:50;;;;;;;0.80;0.80;;;10.40;99.90;;;;;;1023243;29;20554;-64
2022/03/31 01:29:23;;;;;;;0.68;0.68;;;10.40;99.90;;;;;;1023205;29;20027;-64
2022/03/31 01:29:54;;;;;;;0.70;0.70;;;10.40;99.90;;;;;;1022687;29;20016;-64
2022/03/31 01:30:25;;;;;;;0.80;0.80;;;10.40;99.90;;;;;;1022755;29;20110;-64
2022/03/31 01:30:56;;;;;;;0.60;0.60;;;10.40;99.90;;;;;;1022523;29;20023;-64
2022/03/31 01:31:27;;;;;;;0.80;0.70;;;10.40;99.90;;;;;;1022875;28;20019;-64
2022/03/31 01:31:57;;;;;;;0.63;0.63;;;10.40;99.90;;;;;;1022855;29;20012;-64
2022/03/31 01:32:28;;;;;;;1.07;0.70;;;10.40;99.90;;;;;;1022887;29;20426;-64
2022/03/31 01:32:59;;;;;;;0.80;0.80;;;10.40;99.90;;;;;;1022579;29;20070;-64
2022/03/31 01:33:31;;;;;;;1.60;0.90;;;10.40;99.90;;;;;;1022713;29;20112;-64
2022/03/31 01:34:02;;;;;;;0.60;0.60;;;10.30;99.90;;;;;;1022856;29;20489;-64
2022/03/31 01:34:32;;;;;;;0.65;0.63;;;10.40;99.90;;;;;;1022741;29;20047;-65
2022/03/31 01:35:04;;;;;;;0.60;0.60;;;10.30;99.90;;;;;;1023243;29;20049;-64
2022/03/31 01:35:34;;;;;;;0.70;0.70;;;10.30;99.90;;;;;;1023036;29;20059;-64
2022/03/31 01:36:07;;;;;;;0.60;0.60;;;10.30;99.90;;;;;;1022626;29;20085;-64
2022/03/31 01:36:38;;;;;;;0.90;0.80;;;10.40;99.90;;;;;;1022952;29;20015;-64
2022/03/31 01:37:09;;;;;;;0.67;0.67;;;10.30;99.90;;;;;;1022720;29;20027;-64
2022/03/31 01:37:40;;;;;;;0.57;0.57;;;10.30;99.90;;;;;;1022822;29;20030;-64
2022/03/31 01:38:11;;;;;;;0.57;0.57;;;10.30;99.90;;;;;;1022978;29;20094;-65
2022/03/31 01:38:41;;;;;;;0.60;0.60;;;10.30;99.90;;;;;;1022973;29;20751;-64
2022/03/31 01:39:12;;;;;;;0.77;0.77;;;10.30;99.90;;;;;;1023361;28;20081;-64
2022/03/31 01:39:43;;;;;;;0.60;0.60;;;10.30;99.90;;;;;;1022939;29;20028;-64
2022/03/31 01:40:15;;;;;;;0.60;0.60;;;10.30;99.90;;;;;;1023158;29;20595;-64
2022/03/31 01:40:46;;;;;;;0.50;0.50;;;10.30;99.90;;;;;;1022942;28;20019;-64
2022/03/31 01:41:16;;;;;;;0.60;0.60;;;10.30;99.90;;;;;;1023103;28;20055;-65
2022/03/31 01:41:47;;;;;;;0.60;0.60;;;10.30;99.90;;;;;;1023172;29;20455;-64
2022/03/31 01:42:18;;;;;;;0.70;0.70;;;10.20;99.90;;;;;;1023327;29;20043;-64
2022/03/31 01:42:48;;;;;;;0.50;0.50;;;10.20;99.90;;;;;;1022814;28;20027;-64
2022/03/31 01:43:20;;;;;;;0.60;0.60;;;10.20;99.90;;;;;;1022656;29;20466;-64
2022/03/31 01:43:52;;;;;;;0.60;0.60;;;10.20;99.90;;;;;;1022438;29;20019;-64
2022/03/31 01:44:22;;;;;;;0.80;0.70;;;10.10;99.90;;;;;;1023116;29;20091;-64
2022/03/31 01:44:53;;;;;;;0.50;0.50;;;10.10;99.90;;;;;;1022694;29;20198;-64
2022/03/31 01:45:24;;;;;;;0.60;0.60;;;10.10;99.90;;;;;;1023065;28;20024;-66
2022/03/31 01:45:55;;;;;;;0.60;0.60;;;10.10;99.90;;;;;;1022935;28;20762;-65
2022/03/31 01:46:25;;;;;;;0.52;0.52;;;10.10;99.90;;;;;;1022656;29;20476;-64
2022/03/31 01:46:56;;;;;;;0.50;0.50;;;10.10;99.90;;;;;;1023033;29;20403;-65
2022/03/31 01:47:27;;;;;;;0.90;0.70;;;10.10;99.90;;;;;;1022738;29;20114;-65
2022/03/31 01:47:58;;;;;;;0.60;0.60;;;10.10;99.90;;;;;;1022641;29;20407;-65
2022/03/31 01:48:28;;;;;;;0.50;0.50;;;10.10;99.90;;;;;;1022624;29;20023;-65
2022/03/31 01:48:59;;;;;;;0.60;0.60;;;10.10;99.90;;;;;;1018542;29;20027;-63
2022/03/31 01:49:30;;;;;;;0.87;0.60;;;10.10;99.90;;;;;;1019313;29;20048;-65
2022/03/31 01:50:01;;;;;;;0.60;0.60;;;10.10;99.90;;;;;;1013674;29;20055;-66
2022/03/31 01:50:32;;;;;;;0.60;0.60;;;10.10;99.90;;;;;;1018465;29;20403;-63
2022/03/31 01:51:07;;;;;;;0.60;0.60;;;10.10;99.90;;;;;;1022489;29;20031;-64
2022/03/31 01:51:38;;;;;;;0.60;0.60;;;10.10;99.90;;;;;;1022880;29;20159;-64
2022/03/31 01:52:08;;;;;;;0.63;0.63;;;10.10;99.90;;;;;;1022845;29;20054;-63
2022/03/31 01:52:40;;;;;;;0.63;0.63;;;10.10;99.90;;;;;;1023233;28;20147;-63
2022/03/31 01:53:11;;;;;;;0.55;0.55;;;10.10;99.90;;;;;;1022570;28;20115;-64
2022/03/31 01:53:41;;;;;;;0.70;0.70;;;10.10;99.90;;;;;;1023189;29;20022;-64
2022/03/31 01:54:12;;;;;;;0.60;0.60;;;10.10;99.90;;;;;;1022964;29;20030;-65
2022/03/31 01:54:43;;;;;;;0.67;0.67;;;10.10;99.90;;;;;;1026858;28;20529;-65
2022/03/31 01:55:13;;;;;;;0.60;0.60;;;10.10;99.90;;;;;;1026614;28;20019;-63
2022/03/31 01:55:44;;;;;;;0.70;0.70;;;10.10;99.90;;;;;;1026875;28;20242;-63
2022/03/31 01:56:15;;;;;;;0.57;0.57;;;10.10;99.90;;;;;;1026306;28;20608;-63
2022/03/31 01:56:48;;;;;;;0.50;0.50;;;10.00;99.90;;;;;;1022955;29;20047;-63
2022/03/31 01:57:18;;;;;;;0.57;0.57;;;10.00;99.90;;;;;;1023286;28;20466;-64
2022/03/31 01:57:49;;;;;;;0.50;0.50;;;10.00;99.90;;;;;;1022979;29;20481;-64
2022/03/31 01:58:20;;;;;;;0.70;0.70;;;10.00;99.90;;;;;;1022896;28;20513;-64
2022/03/31 01:58:51;;;;;;;0.60;0.60;;;10.00;99.90;;;;;;1022945;29;20486;-66
2022/03/31 01:59:21;;;;;;;0.60;0.60;;;10.00;99.90;;;;;;1022954;29;20503;-63
2022/03/31 01:59:52;;;;;;;0.80;0.80;;;10.10;99.90;;;;;;1023055;28;20089;-64
2022/03/31 02:00:23;;;;;;;0.60;0.60;;;10.10;99.90;;;;;;1022553;29;20289;-65
2022/03/31 02:00:53;;;;;;;0.60;0.60;;;10.00;99.90;;;;;;1022802;29;20019;-64
2022/03/31 02:01:24;;;;;;;0.60;0.60;;;10.00;99.90;;;;;;1022880;29;20071;-64
2022/03/31 02:01:55;;;;;;;0.50;0.50;;;10.00;99.90;;;;;;1026699;28;20023;-64
2022/03/31 02:02:25;;;;;;;0.50;0.50;;;10.00;99.90;;;;;;1026775;28;20056;-65
2022/03/31 02:02:56;;;;;;;0.40;0.40;;;10.00;99.90;;;;;;1026565;28;20030;-64
2022/03/31 02:03:27;;;;;;;0.60;0.60;;;10.00;99.90;;;;;;1026566;28;20124;-63
2022/03/31 02:03:57;;;;;;;0.50;0.50;;;10.00;99.90;;;;;;1022982;28;20020;-65
2022/03/31 02:04:28;;;;;;;0.53;0.53;;;10.00;99.90;;;;;;1023006;29;20019;-65
2022/03/31 02:04:59;;;;;;;0.60;0.60;;;10.00;99.90;;;;;;1023145;29;20030;-65
2022/03/31 02:05:29;;;;;;;0.60;0.60;;;10.00;99.90;;;;;;1023066;29;20267;-65
2022/03/31 02:06:01;;;;;;;0.70;0.70;;;10.00;99.90;;;;;;1022927;28;20074;-65
2022/03/31 02:06:31;;;;;;;0.73;0.70;;;10.00;99.90;;;;;;1022856;29;20127;-64
2022/03/31 02:07:02;;;;;;;0.70;0.60;;;10.00;99.90;;;;;;1022788;29;20377;-66
2022/03/31 02:07:34;;;;;;;1.13;0.80;;;10.00;99.90;;;;;;1023537;29;20019;-66
2022/03/31 02:08:05;;;;;;;0.52;0.52;;;9.90;99.90;;;;;;1026345;28;20074;-65
2022/03/31 02:08:35;;;;;;;0.60;0.60;;;9.90;99.90;;;;;;1026338;28;20023;-65
2022/03/31 02:09:06;;;;;;;0.50;0.50;;;9.90;99.90;;;;;;1026505;28;20023;-64
2022/03/31 02:09:37;;;;;;;0.60;0.60;;;9.90;99.90;;;;;;1026672;28;20030;-65
2022/03/31 02:10:09;;;;;;;0.60;0.60;;;9.90;99.90;;;;;;1023192;29;20019;-65
2022/03/31 02:10:41;;;;;;;0.60;0.60;;;9.90;99.90;;;;;;1023059;29;20485;-65
2022/03/31 02:11:12;;;;;;;0.88;0.88;;;9.90;99.90;;;;;;1022114;29;20033;-65
2022/03/31 02:11:45;;;;;;;0.70;0.70;;;9.90;99.90;;;;;;1022698;29;20023;-64
2022/03/31 02:12:16;;;;;;;0.90;0.80;;;9.90;99.90;;;;;;1022366;29;20453;-64
2022/03/31 02:12:49;;;;;;;0.70;0.70;;;9.90;99.90;;;;;;1022906;29;20445;-64
2022/03/31 02:13:20;;;;;;;0.52;0.50;;;9.90;99.90;;;;;;1022883;28;20106;-64
2022/03/31 02:13:53;;;;;;;0.60;0.60;;;9.90;99.90;;;;;;1023009;28;20020;-65
2022/03/31 02:14:24;;;;;;;0.65;0.57;;;9.90;99.90;;;;;;1022784;28;20018;-65
2022/03/31 02:14:55;;;;;;;0.50;0.43;;;9.90;99.90;;;;;;1023124;28;20028;-64
2022/03/31 02:15:26;;;;;;;0.70;0.50;;;9.90;99.90;;;;;;1023247;29;20058;-65
2022/03/31 02:15:57;;;;;;;0.57;0.50;;;9.90;99.90;;;;;;1023009;28;20019;-64
2022/03/31 02:16:28;;;;;;;0.90;0.60;;;9.90;99.90;;;;;;1022800;29;20023;-67
2022/03/31 02:16:58;;;;;;;0.50;0.50;;;9.90;99.90;;;;;;1022931;29;20145;-65
2022/03/31 02:17:30;;;;;;;0.50;0.50;;;9.90;99.90;;;;;;1022779;29;20027;-64
2022/03/31 02:18:02;;;;;;;0.57;0.57;;;9.90;99.90;;;;;;1023440;28;20510;-66
2022/03/31 02:18:33;;;;;;;0.57;0.57;;;9.80;99.90;;;;;;1022838;28;20023;-64
2022/03/31 02:19:04;;;;;;;0.60;0.60;;;9.80;99.90;;;;;;1022899;29;20031;-64
2022/03/31 02:19:35;;;;;;;0.57;0.50;;;9.80;99.90;;;;;;1022961;29;20058;-66
2022/03/31 02:20:07;;;;;;;0.50;0.50;;;9.80;99.90;;;;;;1023060;29;20027;-65
2022/03/31 02:20:39;;;;;;;0.65;0.65;;;9.80;99.90;;;;;;1022913;29;20023;-65
2022/03/31 02:21:09;;;;;;;0.60;0.60;;;9.80;99.90;;;;;;1026502;28;20125;-64
2022/03/31 02:21:40;;;;;;;0.60;0.60;;;9.80;99.90;;;;;;1026595;28;20069;-65
2022/03/31 02:22:11;;;;;;;0.50;0.50;;;9.80;99.90;;;;;;1022551;29;20680;-64
2022/03/31 02:22:42;;;;;;;0.50;0.50;;;9.80;99.90;;;;;;1022351;29;20629;-65
2022/03/31 02:23:12;;;;;;;0.50;0.50;;;9.80;99.90;;;;;;1022958;29;20035;-65
2022/03/31 02:23:43;;;;;;;0.50;0.50;;;9.80;99.90;;;;;;1022440;29;20055;-65
2022/03/31 02:24:14;;;;;;;0.60;0.60;;;9.80;99.90;;;;;;1023099;29;20027;-66
2022/03/31 02:24:45;;;;;;;0.57;0.57;;;9.80;99.90;;;;;;1022627;28;20114;-66
2022/03/31 02:25:16;;;;;;;0.60;0.60;;;9.80;99.90;;;;;;1023144;29;20039;-65
2022/03/31 02:25:46;;;;;;;0.70;0.70;;;9.80;99.90;;;;;;1023053;29;20023;-66
2022/03/31 02:26:17;;;;;;;0.50;0.50;;;9.80;99.90;;;;;;1026417;28;20023;-66
2022/03/31 02:26:48;;;;;;;0.60;0.60;;;9.80;99.90;;;;;;1026243;28;20055;-65
2022/03/31 02:27:19;;;;;;;0.53;0.53;;;9.80;99.90;;;;;;1022561;29;20126;-65
2022/03/31 02:27:52;;;;;;;0.60;0.60;;;9.80;99.90;;;;;;1022420;29;20021;-67
2022/03/31 02:28:23;;;;;;;0.63;0.63;;;9.80;99.90;;;;;;1022940;29;20128;-65
2022/03/31 02:28:53;;;;;;;0.60;0.60;;;9.80;99.90;;;;;;1022483;29;20140;-65
2022/03/31 02:29:24;;;;;;;0.77;0.60;;;9.80;99.90;;;;;;1022975;29;20029;-65
2022/03/31 02:29:55;;;;;;;0.53;0.53;;;9.80;99.90;;;;;;1022921;29;20057;-64
2022/03/31 02:30:27;;;;;;;0.50;0.50;;;9.80;99.90;;;;;;1022949;29;20015;-68
2022/03/31 02:30:57;;;;;;;0.65;0.65;;;9.80;99.90;;;;;;1022876;28;20547;-65
2022/03/31 02:31:28;;;;;;;0.60;0.60;;;9.80;99.90;;;;;;1023052;29;20550;-64
2022/03/31 02:31:58;;;;;;;0.50;0.50;;;9.70;99.90;;;;;;1022744;29;20584;-64
2022/03/31 02:32:29;;;;;;;1.07;0.60;;;9.70;99.90;;;;;;1023054;29;20023;-64
2022/03/31 02:32:59;;;;;;;0.77;0.70;;;9.80;99.90;;;;;;1022657;29;20024;-65
2022/03/31 02:33:30;;;;;;;0.50;0.50;;;9.70;99.90;;;;;;1023354;29;20027;-64
2022/03/31 02:34:01;;;;;;;0.60;0.60;;;9.70;99.90;;;;;;1026129;28;20019;-64
2022/03/31 02:34:31;;;;;;;0.70;0.70;;;9.70;99.90;;;;;;1022138;29;20501;-64
2022/03/31 02:35:02;;;;;;;0.50;0.50;;;9.70;99.90;;;;;;1022094;29;20022;-65
2022/03/31 02:35:33;;;;;;;0.60;0.60;;;9.70;99.90;;;;;;1022346;29;20463;-64
2022/03/31 02:36:05;;;;;;;0.60;0.60;;;9.70;99.90;;;;;;1022366;29;20266;-64
2022/03/31 02:36:35;;;;;;;0.70;0.70;;;9.70;99.90;;;;;;1022748;28;20023;-64
2022/03/31 02:37:06;;;;;;;0.60;0.60;;;9.70;99.90;;;;;;1022637;29;20363;-65
2022/03/31 02:37:37;;;;;;;0.80;0.80;;;9.70;99.90;;;;;;1023116;29;20027;-64
2022/03/31 02:38:07;;;;;;;0.70;0.70;;;9.70;99.90;;;;;;1022817;29;20027;-63
2022/03/31 02:38:38;;;;;;;0.70;0.70;;;9.70;99.90;;;;;;1022960;29;20039;-64
2022/03/31 02:39:10;;;;;;;1.70;0.60;;;9.70;99.90;;;;;;1022838;29;20122;-63
2022/03/31 02:39:41;;;;;;;1.50;0.90;;;9.70;99.90;;;;;;1022642;28;20128;-65
2022/03/31 02:40:12;;;;;;;0.87;0.60;;;9.70;99.90;;;;;;1022979;28;20023;-64
2022/03/31 02:40:42;;;;;;;0.60;0.60;;;9.70;99.90;;;;;;1022581;29;20033;-63
2022/03/31 02:41:13;;;;;;;0.60;0.60;;;9.70;99.90;;;;;;1023462;29;20030;-64
2022/03/31 02:41:44;;;;;;;0.70;0.60;;;9.70;99.90;;;;;;1022758;29;20483;-63
2022/03/31 02:42:16;;;;;;;0.50;0.50;;;9.70;99.90;;;;;;1022966;29;20482;-65
2022/03/31 02:42:47;;;;;;;0.57;0.57;;;9.70;99.90;;;;;;1022575;28;20066;-63
2022/03/31 02:43:17;;;;;;;0.87;0.70;;;9.70;99.90;;;;;;1022449;29;20138;-63
2022/03/31 02:43:48;;;;;;;1.00;0.70;;;9.70;99.90;;;;;;1018738;29;20079;-64
2022/03/31 02:44:18;;;;;;;0.57;0.57;;;9.70;99.90;;;;;;1018568;29;20724;-64
2022/03/31 02:44:49;;;;;;;0.60;0.60;;;9.70;99.90;;;;;;1018438;29;20055;-64
2022/03/31 02:45:20;;;;;;;0.50;0.50;;;9.70;99.90;;;;;;1022567;29;20050;-65
2022/03/31 02:45:50;;;;;;;0.63;0.63;;;9.70;99.90;;;;;;1022227;29;20023;-64
2022/03/31 02:46:21;;;;;;;0.60;0.60;;;9.70;99.90;;;;;;1023113;28;20039;-64
2022/03/31 02:46:52;;;;;;;0.60;0.60;;;9.70;99.90;;;;;;1025789;28;20027;-64
2022/03/31 02:47:23;;;;;;;0.60;0.60;;;9.70;99.90;;;;;;1026514;28;20022;-64
2022/03/31 02:47:53;;;;;;;0.60;0.60;;;9.70;99.90;;;;;;1026274;28;20026;-65
2022/03/31 02:48:24;;;;;;;0.63;0.63;;;9.70;99.90;;;;;;1022851;29;20465;-64
2022/03/31 02:48:55;;;;;;;0.60;0.60;;;9.70;99.90;;;;;;1022559;29;20141;-64
2022/03/31 02:49:26;;;;;;;0.63;0.60;;;9.60;99.90;;;;;;1022490;29;20046;-64
2022/03/31 02:49:57;;;;;;;0.60;0.60;;;9.60;99.90;;;;;;1022175;29;20020;-65
2022/03/31 02:50:28;;;;;;;0.70;0.70;;;9.60;99.90;;;;;;1022459;29;20041;-66
2022/03/31 02:50:59;;;;;;;0.50;0.50;;;9.60;99.90;;;;;;1022790;29;20015;-66
2022/03/31 02:51:29;;;;;;;0.60;0.60;;;9.70;99.90;;;;;;1023189;29;20023;-66
2022/03/31 02:52:00;;;;;;;0.60;0.60;;;9.70;99.90;;;;;;1022620;29;20024;-65
2022/03/31 02:55:24;;;;;;;0.63;0.63;;;9.70;99.90;;;;;;1022872;29;20062;-64
2022/03/31 02:55:48;;;;;;;0.70;0.70;;;9.70;99.90;;;;;;1022791;29;20049;-66
2022/03/31 02:56:19;;;;;;;0.63;0.63;;;9.70;99.90;;;;;;1022824;29;20015;-69
2022/03/31 02:56:49;;;;;;;0.60;0.60;;;9.70;99.90;;;;;;1023041;29;20015;-66
2022/03/31 02:57:20;;;;;;;0.70;0.70;;;9.70;99.90;;;;;;1022765;29;20082;-66
2022/03/31 02:58:00;;;;;;;1.03;0.70;;;9.70;99.90;;;;;;1022790;29;20023;-65
2022/03/31 02:58:31;;;;;;;0.50;0.50;;;9.70;99.90;;;;;;1022837;29;20032;-65
2022/03/31 02:59:01;;;;;;;0.90;0.60;;;9.70;99.90;;;;;;1022840;29;20046;-66
2022/03/31 02:59:32;;;;;;;0.60;0.60;;;9.70;99.90;;;;;;1022941;29;20023;-65